sensor_id;sensor_type;location;lat;lon;timestamp;P1;durP1;ratioP1;P2;durP2;ratioP2
17987;SDS011;9119;50.932;5.342;2022-09-21T00:01:30;15.00;;;7.53;;
17987;SDS011;9119;50.932;5.342;2022-09-21T00:03:59;16.70;;;7.63;;
17987;SDS011;9119;50.932;5.342;2022-09-21T00:06:31;16.47;;;7.40;;
17987;SDS011;9119;50.932;5.342;2022-09-21T00:09:02;16.93;;;7.27;;
17987;SDS011;9119;50.932;5.342;2022-09-21T00:11:33;20.67;;;8.20;;
17987;SDS011;9119;50.932;5.342;2022-09-21T00:14:02;14.47;;;8.17;;
17987;SDS011;9119;50.932;5.342;2022-09-21T00:16:31;17.03;;;7.70;;
17987;SDS011;9119;50.932;5.342;2022-09-21T00:18:58;15.30;;;6.97;;
17987;SDS011;9119;50.932;5.342;2022-09-21T00:21:39;19.33;;;7.93;;
17987;SDS011;9119;50.932;5.342;2022-09-21T00:24:05;15.37;;;8.37;;
17987;SDS011;9119;50.932;5.342;2022-09-21T00:26:36;15.07;;;8.80;;
17987;SDS011;9119;50.932;5.342;2022-09-21T00:29:08;13.57;;;8.00;;
17987;SDS011;9119;50.932;5.342;2022-09-21T00:31:34;18.70;;;8.63;;
17987;SDS011;9119;50.932;5.342;2022-09-21T00:34:01;22.87;;;10.93;;
17987;SDS011;9119;50.932;5.342;2022-09-21T00:36:27;23.37;;;9.67;;
17987;SDS011;9119;50.932;5.342;2022-09-21T00:38:57;22.87;;;10.17;;
17987;SDS011;9119;50.932;5.342;2022-09-21T00:41:26;28.13;;;11.23;;
17987;SDS011;9119;50.932;5.342;2022-09-21T00:46:40;20.00;;;9.30;;
17987;SDS011;9119;50.932;5.342;2022-09-21T00:49:07;20.83;;;8.50;;
17987;SDS011;9119;50.932;5.342;2022-09-21T00:51:56;19.23;;;8.20;;
17987;SDS011;9119;50.932;5.342;2022-09-21T00:54:29;20.97;;;9.30;;
17987;SDS011;9119;50.932;5.342;2022-09-21T00:57:03;21.77;;;8.27;;
17987;SDS011;9119;50.932;5.342;2022-09-21T00:59:41;26.50;;;8.93;;
17987;SDS011;9119;50.932;5.342;2022-09-21T01:02:11;17.80;;;8.53;;
17987;SDS011;9119;50.932;5.342;2022-09-21T01:04:43;20.30;;;8.83;;
17987;SDS011;9119;50.932;5.342;2022-09-21T01:07:10;17.93;;;8.77;;
17987;SDS011;9119;50.932;5.342;2022-09-21T01:09:41;13.90;;;9.30;;
17987;SDS011;9119;50.932;5.342;2022-09-21T01:31:48;20.90;;;8.63;;
17987;SDS011;9119;50.932;5.342;2022-09-21T01:34:34;13.10;;;7.93;;
17987;SDS011;9119;50.932;5.342;2022-09-21T01:37:12;20.83;;;7.73;;
17987;SDS011;9119;50.932;5.342;2022-09-21T01:39:43;18.53;;;8.20;;
17987;SDS011;9119;50.932;5.342;2022-09-21T01:42:12;14.17;;;7.50;;
17987;SDS011;9119;50.932;5.342;2022-09-21T01:44:40;16.47;;;6.97;;
17987;SDS011;9119;50.932;5.342;2022-09-21T01:47:08;13.37;;;7.37;;
17987;SDS011;9119;50.932;5.342;2022-09-21T01:49:46;11.70;;;6.70;;
17987;SDS011;9119;50.932;5.342;2022-09-21T01:52:21;17.57;;;7.40;;
17987;SDS011;9119;50.932;5.342;2022-09-21T01:54:54;14.67;;;6.93;;
17987;SDS011;9119;50.932;5.342;2022-09-21T01:57:27;17.00;;;6.80;;
17987;SDS011;9119;50.932;5.342;2022-09-21T02:00:02;13.00;;;7.50;;
17987;SDS011;9119;50.932;5.342;2022-09-21T02:02:33;13.37;;;7.23;;
17987;SDS011;9119;50.932;5.342;2022-09-21T02:05:04;13.07;;;6.63;;
17987;SDS011;9119;50.932;5.342;2022-09-21T02:07:31;13.03;;;6.50;;
17987;SDS011;9119;50.932;5.342;2022-09-21T02:09:59;14.63;;;6.30;;
17987;SDS011;9119;50.932;5.342;2022-09-21T02:12:26;10.67;;;6.50;;
17987;SDS011;9119;50.932;5.342;2022-09-21T02:14:53;13.30;;;7.23;;
17987;SDS011;9119;50.932;5.342;2022-09-21T02:17:35;12.70;;;7.20;;
17987;SDS011;9119;50.932;5.342;2022-09-21T02:25:52;15.40;;;6.83;;
17987;SDS011;9119;50.932;5.342;2022-09-21T02:28:42;11.73;;;6.33;;
17987;SDS011;9119;50.932;5.342;2022-09-21T02:33:52;17.00;;;7.23;;
17987;SDS011;9119;50.932;5.342;2022-09-21T02:36:33;11.37;;;6.50;;
17987;SDS011;9119;50.932;5.342;2022-09-21T02:42:18;25.37;;;8.23;;
17987;SDS011;9119;50.932;5.342;2022-09-21T02:44:58;10.50;;;6.53;;
17987;SDS011;9119;50.932;5.342;2022-09-21T02:47:51;13.80;;;6.60;;
17987;SDS011;9119;50.932;5.342;2022-09-21T02:50:28;15.30;;;7.03;;
17987;SDS011;9119;50.932;5.342;2022-09-21T02:52:59;12.97;;;6.47;;
17987;SDS011;9119;50.932;5.342;2022-09-21T02:55:27;16.60;;;7.37;;
17987;SDS011;9119;50.932;5.342;2022-09-21T02:57:54;16.50;;;7.37;;
17987;SDS011;9119;50.932;5.342;2022-09-21T03:00:20;16.07;;;7.97;;
17987;SDS011;9119;50.932;5.342;2022-09-21T03:02:45;11.47;;;6.77;;
17987;SDS011;9119;50.932;5.342;2022-09-21T03:05:12;19.87;;;7.43;;
17987;SDS011;9119;50.932;5.342;2022-09-21T03:07:38;19.03;;;7.73;;
17987;SDS011;9119;50.932;5.342;2022-09-21T03:10:04;12.37;;;6.53;;
17987;SDS011;9119;50.932;5.342;2022-09-21T03:12:32;11.07;;;6.90;;
17987;SDS011;9119;50.932;5.342;2022-09-21T03:14:58;15.47;;;6.97;;
17987;SDS011;9119;50.932;5.342;2022-09-21T03:17:24;15.67;;;6.47;;
17987;SDS011;9119;50.932;5.342;2022-09-21T03:19:50;12.80;;;6.30;;
17987;SDS011;9119;50.932;5.342;2022-09-21T03:22:19;12.33;;;5.67;;
17987;SDS011;9119;50.932;5.342;2022-09-21T03:24:48;12.30;;;6.30;;
17987;SDS011;9119;50.932;5.342;2022-09-21T03:27:15;13.23;;;6.33;;
17987;SDS011;9119;50.932;5.342;2022-09-21T03:29:42;16.23;;;7.10;;
17987;SDS011;9119;50.932;5.342;2022-09-21T03:32:09;9.03;;;6.10;;
17987;SDS011;9119;50.932;5.342;2022-09-21T03:34:35;9.80;;;6.30;;
17987;SDS011;9119;50.932;5.342;2022-09-21T03:37:01;15.37;;;6.63;;
17987;SDS011;9119;50.932;5.342;2022-09-21T03:39:28;12.07;;;7.00;;
17987;SDS011;9119;50.932;5.342;2022-09-21T03:41:54;10.07;;;6.37;;
17987;SDS011;9119;50.932;5.342;2022-09-21T03:44:25;10.90;;;6.50;;
17987;SDS011;9119;50.932;5.342;2022-09-21T03:46:51;11.93;;;7.27;;
17987;SDS011;9119;50.932;5.342;2022-09-21T03:49:17;12.50;;;6.70;;
17987;SDS011;9119;50.932;5.342;2022-09-21T03:51:43;12.87;;;7.80;;
17987;SDS011;9119;50.932;5.342;2022-09-21T03:54:09;10.43;;;7.60;;
17987;SDS011;9119;50.932;5.342;2022-09-21T03:56:35;12.27;;;7.57;;
17987;SDS011;9119;50.932;5.342;2022-09-21T03:59:01;10.97;;;7.73;;
17987;SDS011;9119;50.932;5.342;2022-09-21T04:01:26;10.73;;;7.43;;
17987;SDS011;9119;50.932;5.342;2022-09-21T04:03:52;17.27;;;9.00;;
17987;SDS011;9119;50.932;5.342;2022-09-21T04:06:18;11.73;;;8.60;;
17987;SDS011;9119;50.932;5.342;2022-09-21T04:08:44;17.63;;;9.37;;
17987;SDS011;9119;50.932;5.342;2022-09-21T04:11:11;12.70;;;8.43;;
17987;SDS011;9119;50.932;5.342;2022-09-21T04:13:41;15.50;;;8.30;;
17987;SDS011;9119;50.932;5.342;2022-09-21T04:16:10;14.47;;;9.20;;
17987;SDS011;9119;50.932;5.342;2022-09-21T04:18:36;15.33;;;9.57;;
17987;SDS011;9119;50.932;5.342;2022-09-21T04:21:03;15.97;;;9.33;;
17987;SDS011;9119;50.932;5.342;2022-09-21T04:23:30;16.90;;;9.77;;
17987;SDS011;9119;50.932;5.342;2022-09-21T04:25:55;15.10;;;9.70;;
17987;SDS011;9119;50.932;5.342;2022-09-21T04:28:22;16.47;;;9.30;;
17987;SDS011;9119;50.932;5.342;2022-09-21T04:30:51;16.03;;;9.77;;
17987;SDS011;9119;50.932;5.342;2022-09-21T04:33:18;16.90;;;9.33;;
17987;SDS011;9119;50.932;5.342;2022-09-21T04:35:44;17.10;;;9.17;;
17987;SDS011;9119;50.932;5.342;2022-09-21T04:38:09;16.53;;;10.17;;
17987;SDS011;9119;50.932;5.342;2022-09-21T04:40:37;16.90;;;9.70;;
17987;SDS011;9119;50.932;5.342;2022-09-21T04:43:03;17.57;;;9.53;;
17987;SDS011;9119;50.932;5.342;2022-09-21T04:45:29;19.70;;;10.37;;
17987;SDS011;9119;50.932;5.342;2022-09-21T04:47:55;53.83;;;12.00;;
17987;SDS011;9119;50.932;5.342;2022-09-21T04:50:20;43.80;;;11.77;;
17987;SDS011;9119;50.932;5.342;2022-09-21T04:52:46;19.90;;;10.17;;
17987;SDS011;9119;50.932;5.342;2022-09-21T04:55:12;15.40;;;9.97;;
17987;SDS011;9119;50.932;5.342;2022-09-21T04:57:37;15.57;;;9.23;;
17987;SDS011;9119;50.932;5.342;2022-09-21T05:00:03;19.23;;;10.53;;
17987;SDS011;9119;50.932;5.342;2022-09-21T05:02:30;16.10;;;8.93;;
17987;SDS011;9119;50.932;5.342;2022-09-21T05:04:55;14.30;;;8.80;;
17987;SDS011;9119;50.932;5.342;2022-09-21T05:07:21;15.20;;;8.93;;
17987;SDS011;9119;50.932;5.342;2022-09-21T05:09:47;38.10;;;9.63;;
17987;SDS011;9119;50.932;5.342;2022-09-21T05:12:28;17.80;;;9.50;;
17987;SDS011;9119;50.932;5.342;2022-09-21T05:14:54;13.00;;;9.03;;
17987;SDS011;9119;50.932;5.342;2022-09-21T05:17:20;18.20;;;9.63;;
17987;SDS011;9119;50.932;5.342;2022-09-21T05:19:47;14.83;;;10.03;;
17987;SDS011;9119;50.932;5.342;2022-09-21T05:22:13;14.87;;;9.60;;
17987;SDS011;9119;50.932;5.342;2022-09-21T05:24:39;18.23;;;9.97;;
17987;SDS011;9119;50.932;5.342;2022-09-21T05:27:05;15.10;;;10.27;;
17987;SDS011;9119;50.932;5.342;2022-09-21T05:29:30;14.63;;;9.27;;
17987;SDS011;9119;50.932;5.342;2022-09-21T05:34:40;17.63;;;9.37;;
17987;SDS011;9119;50.932;5.342;2022-09-21T05:40:06;15.87;;;9.47;;
17987;SDS011;9119;50.932;5.342;2022-09-21T05:42:33;14.20;;;8.93;;
17987;SDS011;9119;50.932;5.342;2022-09-21T05:44:59;12.07;;;8.47;;
17987;SDS011;9119;50.932;5.342;2022-09-21T05:53:01;14.20;;;9.53;;
17987;SDS011;9119;50.932;5.342;2022-09-21T06:00:47;16.73;;;10.17;;
17987;SDS011;9119;50.932;5.342;2022-09-21T06:03:28;16.97;;;10.37;;
17987;SDS011;9119;50.932;5.342;2022-09-21T06:05:55;20.77;;;12.57;;
17987;SDS011;9119;50.932;5.342;2022-09-21T06:08:22;15.70;;;10.53;;
17987;SDS011;9119;50.932;5.342;2022-09-21T06:10:52;17.00;;;10.33;;
17987;SDS011;9119;50.932;5.342;2022-09-21T06:13:19;16.13;;;9.97;;
17987;SDS011;9119;50.932;5.342;2022-09-21T06:15:45;12.93;;;9.80;;
17987;SDS011;9119;50.932;5.342;2022-09-21T06:18:11;15.67;;;10.30;;
17987;SDS011;9119;50.932;5.342;2022-09-21T06:20:36;19.30;;;12.07;;
17987;SDS011;9119;50.932;5.342;2022-09-21T06:23:06;25.90;;;12.30;;
17987;SDS011;9119;50.932;5.342;2022-09-21T06:25:34;16.63;;;11.57;;
17987;SDS011;9119;50.932;5.342;2022-09-21T06:28:11;14.47;;;11.03;;
17987;SDS011;9119;50.932;5.342;2022-09-21T06:30:37;13.87;;;9.77;;
17987;SDS011;9119;50.932;5.342;2022-09-21T06:33:06;13.53;;;9.90;;
17987;SDS011;9119;50.932;5.342;2022-09-21T06:35:32;16.10;;;10.77;;
17987;SDS011;9119;50.932;5.342;2022-09-21T06:37:59;13.60;;;10.23;;
17987;SDS011;9119;50.932;5.342;2022-09-21T06:40:26;17.50;;;11.50;;
17987;SDS011;9119;50.932;5.342;2022-09-21T06:42:54;15.10;;;10.40;;
17987;SDS011;9119;50.932;5.342;2022-09-21T06:45:24;18.37;;;11.37;;
17987;SDS011;9119;50.932;5.342;2022-09-21T06:47:50;16.57;;;10.40;;
17987;SDS011;9119;50.932;5.342;2022-09-21T06:50:16;19.07;;;11.23;;
17987;SDS011;9119;50.932;5.342;2022-09-21T06:52:42;17.03;;;11.40;;
17987;SDS011;9119;50.932;5.342;2022-09-21T06:55:07;18.50;;;12.80;;
17987;SDS011;9119;50.932;5.342;2022-09-21T06:57:34;20.10;;;11.83;;
17987;SDS011;9119;50.932;5.342;2022-09-21T07:00:02;18.80;;;12.27;;
17987;SDS011;9119;50.932;5.342;2022-09-21T07:02:29;21.03;;;12.57;;
17987;SDS011;9119;50.932;5.342;2022-09-21T07:04:55;20.30;;;12.73;;
17987;SDS011;9119;50.932;5.342;2022-09-21T07:07:22;22.17;;;13.33;;
17987;SDS011;9119;50.932;5.342;2022-09-21T07:09:48;26.67;;;14.10;;
17987;SDS011;9119;50.932;5.342;2022-09-21T07:12:14;18.40;;;13.43;;
17987;SDS011;9119;50.932;5.342;2022-09-21T07:14:40;32.20;;;14.33;;
17987;SDS011;9119;50.932;5.342;2022-09-21T07:17:07;23.23;;;14.23;;
17987;SDS011;9119;50.932;5.342;2022-09-21T07:19:32;26.37;;;14.67;;
17987;SDS011;9119;50.932;5.342;2022-09-21T07:21:58;22.80;;;14.30;;
17987;SDS011;9119;50.932;5.342;2022-09-21T07:24:23;56.53;;;27.60;;
17987;SDS011;9119;50.932;5.342;2022-09-21T07:26:49;27.07;;;14.07;;
17987;SDS011;9119;50.932;5.342;2022-09-21T07:29:15;31.90;;;14.47;;
17987;SDS011;9119;50.932;5.342;2022-09-21T07:31:43;26.33;;;14.40;;
17987;SDS011;9119;50.932;5.342;2022-09-21T07:34:09;23.57;;;15.40;;
17987;SDS011;9119;50.932;5.342;2022-09-21T07:36:35;25.13;;;15.80;;
17987;SDS011;9119;50.932;5.342;2022-09-21T07:39:01;28.67;;;14.57;;
17987;SDS011;9119;50.932;5.342;2022-09-21T07:41:27;26.77;;;14.47;;
17987;SDS011;9119;50.932;5.342;2022-09-21T07:43:53;21.07;;;13.87;;
17987;SDS011;9119;50.932;5.342;2022-09-21T07:46:19;24.87;;;13.93;;
17987;SDS011;9119;50.932;5.342;2022-09-21T07:48:45;24.30;;;13.43;;
17987;SDS011;9119;50.932;5.342;2022-09-21T07:51:11;28.20;;;14.57;;
17987;SDS011;9119;50.932;5.342;2022-09-21T07:53:39;21.90;;;13.63;;
17987;SDS011;9119;50.932;5.342;2022-09-21T07:56:08;23.37;;;14.20;;
17987;SDS011;9119;50.932;5.342;2022-09-21T07:58:38;24.10;;;14.17;;
17987;SDS011;9119;50.932;5.342;2022-09-21T08:01:23;22.97;;;13.60;;
17987;SDS011;9119;50.932;5.342;2022-09-21T08:03:50;25.20;;;15.27;;
17987;SDS011;9119;50.932;5.342;2022-09-21T08:06:16;29.97;;;13.90;;
17987;SDS011;9119;50.932;5.342;2022-09-21T08:08:43;28.13;;;15.10;;
17987;SDS011;9119;50.932;5.342;2022-09-21T08:11:12;24.63;;;13.87;;
17987;SDS011;9119;50.932;5.342;2022-09-21T08:13:38;23.73;;;13.77;;
17987;SDS011;9119;50.932;5.342;2022-09-21T08:16:04;21.03;;;12.80;;
17987;SDS011;9119;50.932;5.342;2022-09-21T08:18:30;20.63;;;13.10;;
17987;SDS011;9119;50.932;5.342;2022-09-21T08:20:57;25.17;;;12.63;;
17987;SDS011;9119;50.932;5.342;2022-09-21T08:23:24;17.50;;;11.07;;
17987;SDS011;9119;50.932;5.342;2022-09-21T08:25:56;15.30;;;10.37;;
17987;SDS011;9119;50.932;5.342;2022-09-21T08:28:22;17.50;;;9.93;;
17987;SDS011;9119;50.932;5.342;2022-09-21T08:30:49;16.57;;;9.37;;
17987;SDS011;9119;50.932;5.342;2022-09-21T08:33:14;21.97;;;9.07;;
17987;SDS011;9119;50.932;5.342;2022-09-21T08:35:40;19.93;;;8.93;;
17987;SDS011;9119;50.932;5.342;2022-09-21T08:38:05;19.80;;;9.00;;
17987;SDS011;9119;50.932;5.342;2022-09-21T08:40:31;12.87;;;9.03;;
17987;SDS011;9119;50.932;5.342;2022-09-21T08:42:59;26.10;;;10.87;;
17987;SDS011;9119;50.932;5.342;2022-09-21T08:45:31;19.77;;;9.97;;
17987;SDS011;9119;50.932;5.342;2022-09-21T08:48:01;18.70;;;11.13;;
17987;SDS011;9119;50.932;5.342;2022-09-21T08:50:31;18.03;;;10.43;;
17987;SDS011;9119;50.932;5.342;2022-09-21T08:53:11;20.47;;;10.43;;
17987;SDS011;9119;50.932;5.342;2022-09-21T08:55:39;24.43;;;10.97;;
17987;SDS011;9119;50.932;5.342;2022-09-21T08:58:11;16.60;;;10.20;;
17987;SDS011;9119;50.932;5.342;2022-09-21T09:00:56;19.50;;;10.50;;
17987;SDS011;9119;50.932;5.342;2022-09-21T09:03:42;23.10;;;10.10;;
17987;SDS011;9119;50.932;5.342;2022-09-21T09:14:39;21.00;;;8.53;;
17987;SDS011;9119;50.932;5.342;2022-09-21T09:20:08;15.80;;;8.97;;
17987;SDS011;9119;50.932;5.342;2022-09-21T09:25:39;10.70;;;7.27;;
17987;SDS011;9119;50.932;5.342;2022-09-21T09:28:15;39.10;;;9.03;;
17987;SDS011;9119;50.932;5.342;2022-09-21T09:30:55;22.40;;;7.43;;
17987;SDS011;9119;50.932;5.342;2022-09-21T09:36:13;10.13;;;6.20;;
17987;SDS011;9119;50.932;5.342;2022-09-21T09:39:22;13.10;;;6.57;;
17987;SDS011;9119;50.932;5.342;2022-09-21T09:44:14;12.53;;;6.87;;
17987;SDS011;9119;50.932;5.342;2022-09-21T09:47:18;14.67;;;6.70;;
17987;SDS011;9119;50.932;5.342;2022-09-21T09:50:13;16.47;;;6.20;;
17987;SDS011;9119;50.932;5.342;2022-09-21T09:52:45;11.53;;;7.20;;
17987;SDS011;9119;50.932;5.342;2022-09-21T09:55:14;15.53;;;6.40;;
17987;SDS011;9119;50.932;5.342;2022-09-21T09:57:48;12.70;;;5.90;;
17987;SDS011;9119;50.932;5.342;2022-09-21T10:00:15;12.20;;;6.70;;
17987;SDS011;9119;50.932;5.342;2022-09-21T10:02:57;13.67;;;5.77;;
17987;SDS011;9119;50.932;5.342;2022-09-21T10:05:35;12.33;;;6.33;;
17987;SDS011;9119;50.932;5.342;2022-09-21T10:08:07;14.90;;;5.03;;
17987;SDS011;9119;50.932;5.342;2022-09-21T10:10:53;8.87;;;4.37;;
17987;SDS011;9119;50.932;5.342;2022-09-21T10:13:32;10.43;;;3.67;;
17987;SDS011;9119;50.932;5.342;2022-09-21T10:16:00;7.43;;;2.33;;
17987;SDS011;9119;50.932;5.342;2022-09-21T10:18:34;7.63;;;3.57;;
17987;SDS011;9119;50.932;5.342;2022-09-21T10:21:26;6.80;;;3.30;;
17987;SDS011;9119;50.932;5.342;2022-09-21T10:23:58;10.00;;;3.30;;
17987;SDS011;9119;50.932;5.342;2022-09-21T10:32:04;9.17;;;4.73;;
17987;SDS011;9119;50.932;5.342;2022-09-21T10:34:36;12.53;;;5.40;;
17987;SDS011;9119;50.932;5.342;2022-09-21T10:39:52;9.67;;;5.67;;
17987;SDS011;9119;50.932;5.342;2022-09-21T10:42:18;10.87;;;4.50;;
17987;SDS011;9119;50.932;5.342;2022-09-21T10:47:24;11.20;;;5.47;;
17987;SDS011;9119;50.932;5.342;2022-09-21T10:49:57;7.97;;;4.13;;
17987;SDS011;9119;50.932;5.342;2022-09-21T10:52:35;16.77;;;5.53;;
17987;SDS011;9119;50.932;5.342;2022-09-21T10:55:05;11.17;;;4.10;;
17987;SDS011;9119;50.932;5.342;2022-09-21T10:57:39;6.43;;;2.80;;
17987;SDS011;9119;50.932;5.342;2022-09-21T11:02:58;5.27;;;2.40;;
17987;SDS011;9119;50.932;5.342;2022-09-21T11:05:48;6.50;;;3.03;;
17987;SDS011;9119;50.932;5.342;2022-09-21T11:08:17;4.87;;;3.17;;
17987;SDS011;9119;50.932;5.342;2022-09-21T11:13:52;7.17;;;3.10;;
17987;SDS011;9119;50.932;5.342;2022-09-21T11:21:30;8.03;;;3.33;;
17987;SDS011;9119;50.932;5.342;2022-09-21T11:24:16;7.43;;;2.57;;
17987;SDS011;9119;50.932;5.342;2022-09-21T11:29:31;13.23;;;4.60;;
17987;SDS011;9119;50.932;5.342;2022-09-21T12:17:00;6.70;;;2.50;;
17987;SDS011;9119;50.932;5.342;2022-09-21T12:22:56;10.90;;;2.30;;
17987;SDS011;9119;50.932;5.342;2022-09-21T12:25:48;6.57;;;2.73;;
17987;SDS011;9119;50.932;5.342;2022-09-21T12:28:29;7.17;;;2.93;;
17987;SDS011;9119;50.932;5.342;2022-09-21T12:31:08;20.90;;;12.23;;
17987;SDS011;9119;50.932;5.342;2022-09-21T12:33:47;5.13;;;1.80;;
17987;SDS011;9119;50.932;5.342;2022-09-21T12:36:19;6.33;;;1.90;;
17987;SDS011;9119;50.932;5.342;2022-09-21T12:39:04;8.37;;;1.97;;
17987;SDS011;9119;50.932;5.342;2022-09-21T12:41:50;5.17;;;1.90;;
17987;SDS011;9119;50.932;5.342;2022-09-21T12:53:14;10.50;;;2.63;;
17987;SDS011;9119;50.932;5.342;2022-09-21T13:10:42;6.53;;;2.73;;
17987;SDS011;9119;50.932;5.342;2022-09-21T13:15:54;6.70;;;2.60;;
17987;SDS011;9119;50.932;5.342;2022-09-21T13:21:17;15.53;;;3.13;;
17987;SDS011;9119;50.932;5.342;2022-09-21T13:24:02;20.43;;;8.53;;
17987;SDS011;9119;50.932;5.342;2022-09-21T13:26:31;21.07;;;6.30;;
17987;SDS011;9119;50.932;5.342;2022-09-21T13:34:37;9.13;;;3.27;;
17987;SDS011;9119;50.932;5.342;2022-09-21T13:39:41;13.87;;;3.57;;
17987;SDS011;9119;50.932;5.342;2022-09-21T13:47:43;10.23;;;3.40;;
17987;SDS011;9119;50.932;5.342;2022-09-21T13:50:12;7.23;;;2.83;;
17987;SDS011;9119;50.932;5.342;2022-09-21T13:52:53;8.60;;;3.30;;
17987;SDS011;9119;50.932;5.342;2022-09-21T13:55:48;8.93;;;2.63;;
17987;SDS011;9119;50.932;5.342;2022-09-21T13:58:26;6.87;;;2.87;;
17987;SDS011;9119;50.932;5.342;2022-09-21T14:01:12;9.93;;;2.80;;
17987;SDS011;9119;50.932;5.342;2022-09-21T14:03:42;5.40;;;2.40;;
17987;SDS011;9119;50.932;5.342;2022-09-21T14:06:16;5.43;;;2.40;;
17987;SDS011;9119;50.932;5.342;2022-09-21T14:09:07;10.37;;;2.67;;
17987;SDS011;9119;50.932;5.342;2022-09-21T14:11:42;10.40;;;2.70;;
17987;SDS011;9119;50.932;5.342;2022-09-21T14:14:17;9.87;;;2.60;;
17987;SDS011;9119;50.932;5.342;2022-09-21T14:16:59;6.97;;;2.77;;
17987;SDS011;9119;50.932;5.342;2022-09-21T14:29:55;9.43;;;3.37;;
17987;SDS011;9119;50.932;5.342;2022-09-21T14:32:28;7.47;;;2.03;;
17987;SDS011;9119;50.932;5.342;2022-09-21T14:35:01;9.03;;;2.30;;
17987;SDS011;9119;50.932;5.342;2022-09-21T14:37:39;9.00;;;2.43;;
17987;SDS011;9119;50.932;5.342;2022-09-21T14:40:35;6.40;;;2.40;;
17987;SDS011;9119;50.932;5.342;2022-09-21T14:43:05;7.07;;;3.00;;
17987;SDS011;9119;50.932;5.342;2022-09-21T14:48:35;8.10;;;3.60;;
17987;SDS011;9119;50.932;5.342;2022-09-21T14:51:35;8.13;;;3.10;;
17987;SDS011;9119;50.932;5.342;2022-09-21T14:56:49;8.20;;;2.70;;
17987;SDS011;9119;50.932;5.342;2022-09-21T15:02:24;10.97;;;6.20;;
17987;SDS011;9119;50.932;5.342;2022-09-21T15:04:59;13.03;;;3.37;;
17987;SDS011;9119;50.932;5.342;2022-09-21T15:18:48;10.00;;;2.57;;
17987;SDS011;9119;50.932;5.342;2022-09-21T15:21:25;13.57;;;3.03;;
17987;SDS011;9119;50.932;5.342;2022-09-21T15:23:53;7.60;;;2.57;;
17987;SDS011;9119;50.932;5.342;2022-09-21T15:28:49;11.57;;;3.07;;
17987;SDS011;9119;50.932;5.342;2022-09-21T15:31:18;8.43;;;2.50;;
17987;SDS011;9119;50.932;5.342;2022-09-21T15:33:44;8.07;;;2.40;;
17987;SDS011;9119;50.932;5.342;2022-09-21T15:36:34;6.37;;;2.50;;
17987;SDS011;9119;50.932;5.342;2022-09-21T15:39:01;11.70;;;3.43;;
17987;SDS011;9119;50.932;5.342;2022-09-21T15:41:38;13.37;;;3.17;;
17987;SDS011;9119;50.932;5.342;2022-09-21T15:44:13;13.63;;;3.30;;
17987;SDS011;9119;50.932;5.342;2022-09-21T15:46:41;7.30;;;2.87;;
17987;SDS011;9119;50.932;5.342;2022-09-21T15:49:11;6.23;;;2.40;;
17987;SDS011;9119;50.932;5.342;2022-09-21T15:51:46;18.57;;;3.60;;
17987;SDS011;9119;50.932;5.342;2022-09-21T15:54:28;8.33;;;2.77;;
17987;SDS011;9119;50.932;5.342;2022-09-21T15:57:01;6.37;;;2.70;;
17987;SDS011;9119;50.932;5.342;2022-09-21T15:59:31;9.27;;;2.73;;
17987;SDS011;9119;50.932;5.342;2022-09-21T16:01:58;8.77;;;2.50;;
17987;SDS011;9119;50.932;5.342;2022-09-21T16:04:34;9.10;;;2.53;;
17987;SDS011;9119;50.932;5.342;2022-09-21T16:07:06;10.10;;;2.80;;
17987;SDS011;9119;50.932;5.342;2022-09-21T16:09:50;7.80;;;1.90;;
17987;SDS011;9119;50.932;5.342;2022-09-21T16:12:37;6.10;;;2.40;;
17987;SDS011;9119;50.932;5.342;2022-09-21T16:15:22;5.40;;;2.30;;
17987;SDS011;9119;50.932;5.342;2022-09-21T16:20:20;10.27;;;2.67;;
17987;SDS011;9119;50.932;5.342;2022-09-21T16:22:48;7.07;;;2.57;;
17987;SDS011;9119;50.932;5.342;2022-09-21T16:27:57;7.13;;;2.70;;
17987;SDS011;9119;50.932;5.342;2022-09-21T16:30:39;9.87;;;3.00;;
17987;SDS011;9119;50.932;5.342;2022-09-21T16:36:04;8.73;;;2.70;;
17987;SDS011;9119;50.932;5.342;2022-09-21T16:38:53;12.67;;;3.90;;
17987;SDS011;9119;50.932;5.342;2022-09-21T16:41:19;5.23;;;2.50;;
17987;SDS011;9119;50.932;5.342;2022-09-21T16:43:46;11.50;;;2.50;;
17987;SDS011;9119;50.932;5.342;2022-09-21T16:46:15;9.90;;;2.50;;
17987;SDS011;9119;50.932;5.342;2022-09-21T16:48:42;4.50;;;1.97;;
17987;SDS011;9119;50.932;5.342;2022-09-21T16:51:12;7.60;;;2.60;;
17987;SDS011;9119;50.932;5.342;2022-09-21T16:53:39;9.43;;;3.20;;
17987;SDS011;9119;50.932;5.342;2022-09-21T16:56:08;10.90;;;2.70;;
17987;SDS011;9119;50.932;5.342;2022-09-21T16:58:38;9.83;;;2.10;;
17987;SDS011;9119;50.932;5.342;2022-09-21T17:01:04;6.13;;;2.53;;
17987;SDS011;9119;50.932;5.342;2022-09-21T17:03:33;8.57;;;2.67;;
17987;SDS011;9119;50.932;5.342;2022-09-21T17:05:59;10.03;;;2.60;;
17987;SDS011;9119;50.932;5.342;2022-09-21T17:08:25;7.83;;;2.80;;
17987;SDS011;9119;50.932;5.342;2022-09-21T17:10:51;11.93;;;3.10;;
17987;SDS011;9119;50.932;5.342;2022-09-21T17:13:18;8.07;;;2.67;;
17987;SDS011;9119;50.932;5.342;2022-09-21T17:15:44;16.70;;;6.27;;
17987;SDS011;9119;50.932;5.342;2022-09-21T17:18:12;12.73;;;4.37;;
17987;SDS011;9119;50.932;5.342;2022-09-21T17:20:39;15.53;;;6.57;;
17987;SDS011;9119;50.932;5.342;2022-09-21T17:23:06;16.60;;;8.57;;
17987;SDS011;9119;50.932;5.342;2022-09-21T17:25:33;17.37;;;5.90;;
17987;SDS011;9119;50.932;5.342;2022-09-21T17:28:00;19.37;;;3.17;;
17987;SDS011;9119;50.932;5.342;2022-09-21T17:30:28;10.87;;;2.87;;
17987;SDS011;9119;50.932;5.342;2022-09-21T17:32:54;10.13;;;3.20;;
17987;SDS011;9119;50.932;5.342;2022-09-21T17:35:34;11.83;;;3.33;;
17987;SDS011;9119;50.932;5.342;2022-09-21T17:38:04;10.23;;;3.43;;
17987;SDS011;9119;50.932;5.342;2022-09-21T17:40:31;8.87;;;4.23;;
17987;SDS011;9119;50.932;5.342;2022-09-21T17:46:02;10.37;;;4.30;;
17987;SDS011;9119;50.932;5.342;2022-09-21T17:48:35;9.23;;;4.67;;
17987;SDS011;9119;50.932;5.342;2022-09-21T17:51:06;14.47;;;4.90;;
17987;SDS011;9119;50.932;5.342;2022-09-21T17:53:33;10.37;;;3.90;;
17987;SDS011;9119;50.932;5.342;2022-09-21T17:56:46;12.13;;;4.73;;
17987;SDS011;9119;50.932;5.342;2022-09-21T17:58:59;9.63;;;4.73;;
17987;SDS011;9119;50.932;5.342;2022-09-21T18:01:33;12.27;;;4.33;;
17987;SDS011;9119;50.932;5.342;2022-09-21T18:04:02;11.43;;;4.20;;
17987;SDS011;9119;50.932;5.342;2022-09-21T18:06:29;9.60;;;4.80;;
17987;SDS011;9119;50.932;5.342;2022-09-21T18:08:58;12.73;;;4.27;;
17987;SDS011;9119;50.932;5.342;2022-09-21T18:22:45;7.83;;;3.30;;
17987;SDS011;9119;50.932;5.342;2022-09-21T18:25:28;11.97;;;3.53;;
17987;SDS011;9119;50.932;5.342;2022-09-21T18:28:12;10.90;;;3.83;;
17987;SDS011;9119;50.932;5.342;2022-09-21T18:31:01;15.83;;;5.27;;
17987;SDS011;9119;50.932;5.342;2022-09-21T18:36:34;11.83;;;4.40;;
17987;SDS011;9119;50.932;5.342;2022-09-21T18:44:43;11.77;;;5.47;;
17987;SDS011;9119;50.932;5.342;2022-09-21T18:50:04;13.70;;;5.40;;
17987;SDS011;9119;50.932;5.342;2022-09-21T18:52:58;14.87;;;5.30;;
17987;SDS011;9119;50.932;5.342;2022-09-21T18:55:35;18.13;;;6.67;;
17987;SDS011;9119;50.932;5.342;2022-09-21T18:58:01;12.40;;;4.87;;
17987;SDS011;9119;50.932;5.342;2022-09-21T19:00:28;28.00;;;11.03;;
17987;SDS011;9119;50.932;5.342;2022-09-21T19:03:01;16.27;;;7.77;;
17987;SDS011;9119;50.932;5.342;2022-09-21T19:05:34;33.73;;;11.43;;
17987;SDS011;9119;50.932;5.342;2022-09-21T19:10:44;20.53;;;9.37;;
17987;SDS011;9119;50.932;5.342;2022-09-21T19:16:30;15.43;;;6.37;;
17987;SDS011;9119;50.932;5.342;2022-09-21T19:19:12;18.90;;;7.20;;
17987;SDS011;9119;50.932;5.342;2022-09-21T19:22:04;13.87;;;6.07;;
17987;SDS011;9119;50.932;5.342;2022-09-21T19:24:44;15.67;;;5.07;;
17987;SDS011;9119;50.932;5.342;2022-09-21T19:27:42;17.87;;;4.93;;
17987;SDS011;9119;50.932;5.342;2022-09-21T19:30:35;18.27;;;6.93;;
17987;SDS011;9119;50.932;5.342;2022-09-21T19:33:05;13.07;;;5.23;;